Latest Weather Observations for Ernabella/Pukatja

IDD60801

Issued at 10:05 pm CST Wednesday 23 April 2014 (issued every 30 minutes, with the page automatically refreshed every 10 minutes)

About weather observations | Map of weather stations | Latest weather observations for NT | Other Formats
Station Details ID: 016097 Name: PUKATJA Lat: -26.26 Lon: 132.18 Height: 703.2 m
Data from the previous 72 hours. | See also: Recent months at Ernabella/Pukatja
Date/Time
CST
Temp
°C
App
Temp
°C
Dew
Point
Rel
Hum
%
Delta-T
°C
Wind Press
QNH
hPa
Press
MSL
hPa
Rain
since 9 am
mm
Dir
 
Spd
km/h
Gust
km/h
Spd
kts
Gust
kts
23/10:00pm 18.9 16.1 5.0 40 7.0 W 9 13 5 7 1018.8 - 0.0
23/09:30pm 19.5 16.3 5.2 39 7.2 WSW 11 13 6 7 1018.7 - 0.0
23/09:00pm 18.5 16.0 4.7 40 6.9 W 7 11 4 6 1018.5 1015.2 0.0
23/08:30pm 18.9 17.8 5.0 40 7.0 CALM 0 0 0 0 1018.1 - 0.0
23/08:00pm 19.4 18.1 4.3 37 7.5 CALM 0 0 0 0 1017.9 - 0.0
23/07:30pm 21.9 18.5 4.0 31 9.0 SSW 11 15 6 8 1017.5 - 0.0
23/07:00pm 23.1 18.9 3.6 28 9.8 SW 15 19 8 10 1017.2 - 0.0
23/06:30pm 23.9 19.8 4.3 28 10.0 SW 15 19 8 10 1016.7 - 0.0
23/06:00pm 25.4 21.2 5.6 28 10.5 SSW 17 20 9 11 1016.4 1013.2 0.0
23/05:30pm 25.9 22.4 5.5 27 10.8 SSW 13 17 7 9 1016.2 - 0.0
23/05:00pm 26.9 23.3 5.2 25 11.5 SW 13 24 7 13 1016.1 - 0.0
23/04:30pm 27.3 23.3 6.7 27 11.2 SSW 17 24 9 13 1016.0 - 0.0
23/04:00pm 27.5 23.9 6.8 27 11.3 W 15 24 8 13 1016.1 - 0.0
23/03:30pm 27.6 24.9 7.5 28 11.1 SSW 11 20 6 11 1016.1 - 0.0
23/03:00pm 27.5 24.4 7.4 28 11.1 SW 13 22 7 12 1016.2 1013.0 0.0
23/02:30pm 27.5 24.8 7.4 28 11.1 WNW 11 19 6 10 1016.5 - 0.0
23/02:00pm 26.3 24.7 7.8 31 10.2 W 6 11 3 6 1016.8 - 0.0
23/01:30pm 26.2 22.2 9.1 34 9.6 SW 20 28 11 15 1017.3 - 0.0
23/01:00pm 26.7 23.9 8.6 32 10.2 W 13 20 7 11 1017.7 - 0.0
23/12:30pm 25.5 23.7 9.3 36 9.1 N 9 15 5 8 1018.2 - 0.0
23/12:00pm 24.8 23.1 9.9 39 8.4 E 9 15 5 8 1018.8 1015.6 0.0
23/11:30am 23.9 22.3 10.2 42 7.8 ENE 9 13 5 7 1019.2 - 0.0
23/11:00am 23.3 22.3 10.4 44 7.3 ENE 6 13 3 7 1019.6 - 0.0
23/10:30am 22.1 21.0 10.6 48 6.5 ENE 7 13 4 7 1019.9 - 0.0
23/10:00am 21.1 20.2 10.6 51 5.9 E 6 11 3 6 1020.2 - 0.0
23/09:30am 20.1 19.0 10.5 54 5.4 E 7 11 4 6 1020.2 - 0.0
23/09:00am 18.6 17.4 10.2 58 4.6 S 7 13 4 7 1020.4 1017.2 0.0
23/08:30am 17.6 17.8 10.5 63 3.9 CALM 0 0 0 0 1020.3 - 0.0
23/08:00am 15.5 15.8 10.9 74 2.5 CALM 0 6 0 3 1019.8 - 0.0
23/07:30am 12.5 10.8 9.9 84 1.4 SW 9 11 5 6 1019.7 - 0.0
23/07:00am 11.6 10.7 9.2 85 1.3 NW 4 9 2 5 1019.4 - 0.0
23/06:30am 11.0 9.4 8.9 87 1.1 N 7 9 4 5 1019.2 - 0.0
23/06:00am 11.0 9.6 8.9 87 1.1 N 6 7 3 4 1019.1 1015.9 0.0
23/05:30am 11.2 9.6 8.6 84 1.3 ENE 7 9 4 5 1018.9 - 0.0
23/05:00am 12.4 11.0 9.6 83 1.5 E 7 9 4 5 1018.9 - 0.0
23/04:30am 13.5 11.7 9.6 77 2.1 SE 9 15 5 8 1018.7 - 0.0
23/04:00am 14.0 12.7 9.8 76 2.2 E 7 11 4 6 1019.0 - 0.0
23/03:30am 14.8 13.1 10.0 73 2.6 E 9 13 5 7 1019.2 - 0.0
23/03:00am 16.6 15.1 10.5 67 3.4 SE 9 15 5 8 1019.0 1015.8 0.0
23/02:30am 17.2 15.4 10.8 66 3.6 SSE 11 19 6 10 1019.1 - 0.0
23/02:00am 17.3 16.3 10.9 66 3.6 S 7 11 4 6 1019.3 - 0.0
23/01:30am 17.7 16.3 10.8 64 3.8 S 9 15 5 8 1019.6 - 0.0
23/01:00am 18.1 16.3 11.0 63 4.0 S 11 17 6 9 1019.6 - 0.0
23/12:30am 18.3 16.8 10.7 61 4.2 S 9 15 5 8 1019.8 - 0.0
23/12:00am 18.7 16.9 10.8 60 4.4 S 11 20 6 11 1019.8 1016.7 0.0
 
Date/Time
CST
Temp
°C
App
Temp
°C
Dew
Point
Rel
Hum
%
Delta-T
°C
Wind Press
QNH
hPa
Press
MSL
hPa
Rain
since 9 am
mm
Dir
 
Spd
km/h
Gust
km/h
Spd
kts
Gust
kts
22/11:30pm 19.1 17.2 10.6 58 4.8 SSE 11 15 6 8 1020.1 - 0.0
22/11:00pm 19.8 16.4 10.5 55 5.2 SSE 19 24 10 13 1020.2 - 0.0
22/10:30pm 20.2 16.5 10.3 53 5.5 SSE 20 28 11 15 1019.9 - 0.0
22/10:00pm 20.7 17.0 10.2 51 5.9 S 20 28 11 15 1019.8 - 0.0
22/09:30pm 21.6 17.8 9.8 47 6.6 S 20 26 11 14 1019.7 - 0.0
22/09:00pm 21.6 18.0 9.8 47 6.6 S 19 26 10 14 1019.6 1016.4 0.0
22/08:30pm 21.7 18.4 9.6 46 6.7 SSE 17 20 9 11 1019.4 - 0.0
22/08:00pm 22.5 19.1 9.0 42 7.5 S 17 24 9 13 1019.1 - 0.0
22/07:30pm 22.0 19.6 8.5 42 7.4 S 11 17 6 9 1018.8 - 0.0
22/07:00pm 22.7 20.1 7.7 38 8.1 SSW 11 17 6 9 1018.1 - 0.0
22/06:30pm 23.0 20.0 7.9 38 8.2 SW 13 15 7 8 1017.7 - 0.0
22/06:00pm 24.9 21.1 7.5 33 9.5 SW 17 22 9 12 1017.5 1014.3 0.0
22/05:30pm 25.8 21.4 7.4 31 10.1 SW 20 26 11 14 1017.3 - 0.0
22/05:00pm 26.5 21.1 6.5 28 10.8 SW 24 30 13 16 1017.2 - 0.0
22/04:30pm 26.9 21.1 6.3 27 11.1 SW 26 33 14 18 1017.3 - 0.0
22/04:00pm 27.3 21.4 7.7 29 10.9 SW 28 35 15 19 1017.3 - 0.0
22/03:30pm 27.5 21.6 7.4 28 11.1 SW 28 35 15 19 1017.3 - 0.0
22/03:00pm 27.5 22.7 7.4 28 11.1 SW 22 30 12 16 1017.3 1014.1 0.0
22/02:30pm 27.1 22.7 9.0 32 10.2 SSW 22 30 12 16 1017.5 - 0.0
22/02:00pm 26.5 21.7 8.9 33 9.9 SW 24 32 13 17 1017.7 - 0.0
22/01:30pm 25.5 21.2 9.3 36 9.1 SW 22 30 12 16 1018.2 - 0.0
22/01:00pm 25.2 21.4 9.9 38 8.7 SW 20 28 11 15 1018.8 - 0.0
22/12:30pm 24.0 20.4 9.9 41 8.0 SW 19 28 10 15 1019.2 - 0.0
22/12:00pm 23.1 19.5 9.8 43 7.5 SW 19 26 10 14 1019.7 1016.5 0.0
22/11:30am 22.6 17.6 9.7 44 7.2 SW 26 33 14 18 1020.1 - 0.0
22/11:00am 22.5 18.1 7.5 38 8.1 WSW 20 26 11 14 1020.3 - 0.0
22/10:30am 21.7 16.7 6.4 37 8.0 SW 22 30 12 16 1020.5 - 0.0
22/10:00am 21.4 15.6 4.5 33 8.5 WSW 24 28 13 15 1020.3 - 0.0
22/09:30am 21.7 16.5 3.4 30 9.1 WSW 20 26 11 14 1019.9 - 0.0
22/09:00am 21.7 18.2 3.4 30 9.1 WSW 11 15 6 8 1019.7 1016.5 0.0
22/08:30am 20.4 17.7 3.6 33 8.3 W 7 9 4 5 1019.5 - 0.0
22/08:00am 17.5 16.3 4.8 43 6.3 CALM 0 0 0 0 1019.4 - 0.0
22/07:30am 15.2 12.3 4.6 49 5.1 SW 9 11 5 6 1019.2 - 0.0
22/07:00am 16.4 13.6 3.1 41 6.3 S 7 13 4 7 1018.8 - 0.0
22/06:30am 16.3 13.6 2.7 40 6.4 SSE 6 9 3 5 1018.3 - 0.0
22/06:00am 16.7 14.8 2.7 39 6.6 N 2 6 1 3 1017.9 1014.7 0.0
22/05:30am 17.0 14.6 2.2 37 6.9 NNE 4 11 2 6 1017.7 - 0.0
22/05:00am 16.9 14.0 2.5 38 6.8 E 7 9 4 5 1017.6 - 0.0
22/04:30am 16.7 14.1 3.0 40 6.5 ESE 6 9 3 5 1017.6 - 0.0
22/04:00am 17.1 14.3 2.3 37 7.0 E 6 7 3 4 1017.5 - 0.0
22/03:30am 16.3 13.6 2.7 40 6.4 ESE 6 9 3 5 1017.5 - 0.0
22/03:00am 17.6 14.9 2.8 37 7.0 E 6 9 3 5 1017.5 1014.3 0.0
22/02:30am 17.6 14.7 2.4 36 7.2 NE 7 9 4 5 1017.6 - 0.0
22/02:00am 17.4 14.5 2.6 37 7.0 E 7 9 4 5 1017.8 - 0.0
22/01:30am 17.0 12.7 3.3 40 6.6 E 15 19 8 10 1017.7 - 0.0
22/01:00am 15.0 11.9 3.5 46 5.4 E 9 9 5 5 1017.9 - 0.0
22/12:30am 14.4 12.7 6.0 57 4.2 NE 4 6 2 3 1017.9 - 0.0
22/12:00am 13.8 11.4 5.4 57 4.1 ENE 7 9 4 5 1017.8 1014.6 0.0
 
Date/Time
CST
Temp
°C
App
Temp
°C
Dew
Point
Rel
Hum
%
Delta-T
°C
Wind Press
QNH
hPa
Press
MSL
hPa
Rain
since 9 am
mm
Dir
 
Spd
km/h
Gust
km/h
Spd
kts
Gust
kts
21/11:30pm 14.5 12.3 5.3 54 4.5 E 6 7 3 4 1017.9 - 0.0
21/11:00pm 14.5 13.3 4.5 51 4.8 CALM 0 0 0 0 1018.0 - 0.0
21/10:30pm 15.5 14.2 6.0 53 4.8 ENE 2 6 1 3 1018.1 - 0.0
21/10:00pm 16.4 15.0 5.7 49 5.4 ENE 2 6 1 3 1018.2 - 0.0
21/09:30pm 19.4 17.0 2.3 32 8.2 ENE 4 7 2 4 1018.1 - 0.0
21/09:00pm 17.8 15.2 4.4 41 6.6 NE 7 9 4 5 1017.9 1014.7 0.0
21/08:30pm 18.8 16.1 2.6 34 7.8 E 6 7 3 4 1017.8 - 0.0
21/08:00pm 20.3 18.7 2.6 31 8.6 CALM 0 7 0 4 1017.5 - 0.0
21/07:30pm 21.1 19.5 2.4 29 9.1 CALM 0 0 0 0 1017.2 - 0.0
21/07:00pm 21.4 20.0 3.6 31 8.9 CALM 0 0 0 0 1017.0 - 0.0
21/06:30pm 23.3 20.3 2.2 25 10.4 WNW 7 9 4 5 1016.5 - 0.0
21/06:00pm 25.8 22.8 1.8 21 11.9 W 7 9 4 5 1016.5 1013.3 0.0
21/05:30pm 27.0 23.0 0.7 18 12.9 W 11 15 6 8 1016.3 - 0.0
21/05:00pm 27.4 23.4 0.2 17 13.2 WNW 11 19 6 10 1016.1 - 0.0
21/04:30pm 27.7 23.6 -0.4 16 13.6 WNW 11 15 6 8 1016.2 - 0.0
21/04:00pm 27.6 23.6 0.4 17 13.3 NW 11 20 6 11 1016.2 - 0.0
21/03:30pm 27.6 23.2 0.4 17 13.3 W 13 22 7 12 1016.3 - 0.0
21/03:00pm 27.9 23.9 0.6 17 13.4 NNW 11 19 6 10 1016.4 1013.2 0.0
21/02:30pm 27.8 23.9 1.3 18 13.2 NNE 11 17 6 9 1016.5 - 0.0
21/02:00pm 27.2 23.0 1.6 19 12.8 W 13 20 7 11 1017.0 - 0.0
21/01:30pm 26.7 22.8 1.2 19 12.6 NW 11 19 6 10 1017.3 - 0.0
21/01:00pm 26.6 21.2 1.1 19 12.5 N 19 30 10 16 1017.9 - 0.0
21/12:30pm 26.2 21.0 2.2 21 12.0 N 19 28 10 15 1018.5 - 0.0
21/12:00pm 25.7 21.0 3.0 23 11.5 N 17 24 9 13 1019.1 1015.9 0.0
21/11:30am 25.2 19.9 2.0 22 11.5 N 19 26 10 14 1019.4 - 0.0
21/11:00am 24.1 18.1 1.1 22 11.1 N 22 33 12 18 1019.9 - 0.0
21/10:30am 23.7 17.8 1.4 23 10.8 N 22 32 12 17 1020.2 - 0.0
21/10:00am 23.1 18.2 2.0 25 10.3 N 17 20 9 11 1020.4 - 0.0
21/09:30am 22.1 17.9 1.7 26 9.8 N 13 20 7 11 1020.5 - 0.0
21/09:00am 21.3 17.9 2.1 28 9.2 NE 9 13 5 7 1020.4 1017.2 0.0
21/08:30am 20.4 17.7 2.7 31 8.6 ENE 6 11 3 6 1020.2 - 0.0
21/08:00am 18.6 16.4 3.3 36 7.4 E 4 7 2 4 1019.8 - 0.0
21/07:30am 13.9 12.8 5.3 56 4.2 CALM 0 0 0 0 1019.5 - 0.0
21/07:00am 12.1 10.8 4.3 59 3.7 CALM 0 0 0 0 1019.3 - 0.0
21/06:30am 13.7 12.4 4.3 53 4.5 CALM 0 6 0 3 1019.3 - 0.0
21/06:00am 13.3 12.0 4.2 54 4.3 CALM 0 7 0 4 1019.1 1015.9 0.0
21/05:30am 14.0 11.6 4.3 52 4.6 WSW 6 7 3 4 1018.9 - 0.0
21/05:00am 13.9 11.5 4.2 52 4.6 E 6 9 3 5 1018.7 - 0.0
21/04:30am 17.0 13.5 3.7 41 6.4 E 11 15 6 8 1018.5 - 0.0
21/04:00am 16.1 12.7 3.9 44 5.9 E 11 13 6 7 1018.5 - 0.0
21/03:30am 16.4 13.3 3.8 43 6.1 E 9 13 5 7 1018.6 - 0.0
21/03:00am 16.4 13.3 3.8 43 6.1 E 9 11 5 6 1018.6 1015.4 0.0
21/02:30am 15.7 12.4 4.7 48 5.4 E 11 13 6 7 1018.5 - 0.0
21/02:00am 14.2 11.4 5.3 55 4.4 E 9 11 5 6 1018.6 - 0.0
21/01:30am 14.8 13.6 4.8 51 4.9 CALM 0 0 0 0 1018.7 - 0.0
21/01:00am 16.3 13.0 4.4 45 5.8 E 11 13 6 7 1018.8 - 0.0
21/12:30am 16.6 13.3 4.3 44 6.0 E 11 13 6 7 1018.8 - 0.0
21/12:00am 17.1 13.8 4.4 43 6.2 ENE 11 13 6 7 1018.9 1015.7 0.0
 
Date/Time
CST
Temp
°C
App
Temp
°C
Dew
Point
Rel
Hum
%
Delta-T
°C
Wind Press
QNH
hPa
Press
MSL
hPa
Rain
since 9 am
mm
Dir
 
Spd
km/h
Gust
km/h
Spd
kts
Gust
kts
20/11:30pm 17.5 14.2 4.5 42 6.4 ENE 11 15 6 8 1019.2 - 0.0
20/11:00pm 17.4 14.4 4.0 41 6.5 ENE 9 11 5 6 1019.2 - 0.0
20/10:30pm 17.5 14.1 4.1 41 6.5 ENE 11 13 6 7 1019.1 - 0.0

Other Formats:

Comma delimited format used in spreadsheet applications
http://www.bom.gov.au/fwo/IDD60801/IDD60801.94474.axf

JavaScript Object Notation format (JSON) in row-major order
http://www.bom.gov.au/fwo/IDD60801/IDD60801.94474.json